sensor_id;sensor_type;location;lat;lon;timestamp;temperature;humidity
21039;DHT22;10678;51.002;4.786;2023-03-31T00:00:35;12.60;99.90
21039;DHT22;10678;51.002;4.786;2023-03-31T00:03:01;12.70;99.90
21039;DHT22;10678;51.002;4.786;2023-03-31T00:05:27;12.70;99.90
21039;DHT22;10678;51.002;4.786;2023-03-31T00:07:57;12.70;99.90
21039;DHT22;10678;51.002;4.786;2023-03-31T00:10:27;12.60;99.90
21039;DHT22;10678;51.002;4.786;2023-03-31T00:12:53;12.70;99.90
21039;DHT22;10678;51.002;4.786;2023-03-31T00:15:18;12.70;99.90
21039;DHT22;10678;51.002;4.786;2023-03-31T00:17:44;12.70;99.90
21039;DHT22;10678;51.002;4.786;2023-03-31T00:20:12;12.80;99.90
21039;DHT22;10678;51.002;4.786;2023-03-31T00:22:39;12.90;99.90
21039;DHT22;10678;51.002;4.786;2023-03-31T00:25:12;12.90;99.90
21039;DHT22;10678;51.002;4.786;2023-03-31T00:27:44;12.80;99.90
21039;DHT22;10678;51.002;4.786;2023-03-31T00:30:11;12.90;99.90
21039;DHT22;10678;51.002;4.786;2023-03-31T00:32:37;13.00;99.90
21039;DHT22;10678;51.002;4.786;2023-03-31T00:35:03;13.10;99.90
21039;DHT22;10678;51.002;4.786;2023-03-31T00:37:29;13.10;99.90
21039;DHT22;10678;51.002;4.786;2023-03-31T00:39:55;13.10;99.90
21039;DHT22;10678;51.002;4.786;2023-03-31T00:42:21;13.10;99.90
21039;DHT22;10678;51.002;4.786;2023-03-31T00:45:19;13.00;99.90
21039;DHT22;10678;51.002;4.786;2023-03-31T00:50:26;13.10;99.90
21039;DHT22;10678;51.002;4.786;2023-03-31T00:52:56;13.10;99.90
21039;DHT22;10678;51.002;4.786;2023-03-31T00:55:34;13.10;99.90
21039;DHT22;10678;51.002;4.786;2023-03-31T00:58:01;13.10;99.90
21039;DHT22;10678;51.002;4.786;2023-03-31T01:00:29;13.00;99.90
21039;DHT22;10678;51.002;4.786;2023-03-31T01:02:58;13.10;99.90
21039;DHT22;10678;51.002;4.786;2023-03-31T01:05:30;13.00;99.90
21039;DHT22;10678;51.002;4.786;2023-03-31T01:07:58;13.10;99.90
21039;DHT22;10678;51.002;4.786;2023-03-31T01:10:25;13.10;99.90
21039;DHT22;10678;51.002;4.786;2023-03-31T01:12:53;13.00;99.90
21039;DHT22;10678;51.002;4.786;2023-03-31T01:15:20;12.90;99.90
21039;DHT22;10678;51.002;4.786;2023-03-31T01:17:46;13.00;99.90
21039;DHT22;10678;51.002;4.786;2023-03-31T01:29:22;12.90;99.90
21039;DHT22;10678;51.002;4.786;2023-03-31T01:43:19;12.70;99.90
21039;DHT22;10678;51.002;4.786;2023-03-31T01:45:56;12.70;99.90
21039;DHT22;10678;51.002;4.786;2023-03-31T01:48:48;12.70;99.90
21039;DHT22;10678;51.002;4.786;2023-03-31T01:51:34;12.90;99.90
21039;DHT22;10678;51.002;4.786;2023-03-31T02:00:09;13.00;99.90
21039;DHT22;10678;51.002;4.786;2023-03-31T02:05:14;12.80;99.90
21039;DHT22;10678;51.002;4.786;2023-03-31T02:07:45;12.70;99.90
21039;DHT22;10678;51.002;4.786;2023-03-31T02:10:13;12.60;99.90
21039;DHT22;10678;51.002;4.786;2023-03-31T02:12:41;12.70;99.90
21039;DHT22;10678;51.002;4.786;2023-03-31T02:15:10;12.70;99.90
21039;DHT22;10678;51.002;4.786;2023-03-31T02:17:39;12.70;99.90
21039;DHT22;10678;51.002;4.786;2023-03-31T02:20:09;12.90;99.90
21039;DHT22;10678;51.002;4.786;2023-03-31T02:22:38;12.80;99.90
21039;DHT22;10678;51.002;4.786;2023-03-31T02:25:07;12.80;99.90
21039;DHT22;10678;51.002;4.786;2023-03-31T02:27:46;12.70;99.90
21039;DHT22;10678;51.002;4.786;2023-03-31T02:30:15;12.60;99.90
21039;DHT22;10678;51.002;4.786;2023-03-31T02:32:42;12.50;99.90
21039;DHT22;10678;51.002;4.786;2023-03-31T02:35:17;12.50;99.90
21039;DHT22;10678;51.002;4.786;2023-03-31T02:37:43;12.30;99.90
21039;DHT22;10678;51.002;4.786;2023-03-31T02:40:19;12.40;99.90
21039;DHT22;10678;51.002;4.786;2023-03-31T02:42:45;12.50;99.90
21039;DHT22;10678;51.002;4.786;2023-03-31T02:48:16;12.40;99.90
21039;DHT22;10678;51.002;4.786;2023-03-31T03:04:59;12.40;99.90
21039;DHT22;10678;51.002;4.786;2023-03-31T03:07:41;12.30;99.90
21039;DHT22;10678;51.002;4.786;2023-03-31T03:10:25;12.40;99.90
21039;DHT22;10678;51.002;4.786;2023-03-31T03:13:02;12.40;99.90
21039;DHT22;10678;51.002;4.786;2023-03-31T03:15:38;12.50;99.90
21039;DHT22;10678;51.002;4.786;2023-03-31T03:18:08;12.40;99.90
21039;DHT22;10678;51.002;4.786;2023-03-31T03:20:33;12.40;99.90
21039;DHT22;10678;51.002;4.786;2023-03-31T03:23:00;12.40;99.90
21039;DHT22;10678;51.002;4.786;2023-03-31T03:25:26;12.40;99.90
21039;DHT22;10678;51.002;4.786;2023-03-31T03:27:51;12.30;99.90
21039;DHT22;10678;51.002;4.786;2023-03-31T03:30:20;12.40;99.90
21039;DHT22;10678;51.002;4.786;2023-03-31T03:32:46;12.50;99.90
21039;DHT22;10678;51.002;4.786;2023-03-31T03:35:11;12.50;99.90
21039;DHT22;10678;51.002;4.786;2023-03-31T03:37:37;12.50;99.90
21039;DHT22;10678;51.002;4.786;2023-03-31T03:40:03;12.40;99.90
21039;DHT22;10678;51.002;4.786;2023-03-31T03:42:32;12.40;99.90
21039;DHT22;10678;51.002;4.786;2023-03-31T03:44:58;12.40;99.90
21039;DHT22;10678;51.002;4.786;2023-03-31T03:47:24;12.50;99.90
21039;DHT22;10678;51.002;4.786;2023-03-31T03:49:50;12.40;99.90
21039;DHT22;10678;51.002;4.786;2023-03-31T03:52:16;12.30;99.90
21039;DHT22;10678;51.002;4.786;2023-03-31T03:54:41;12.30;99.90
21039;DHT22;10678;51.002;4.786;2023-03-31T03:57:07;12.30;99.90
21039;DHT22;10678;51.002;4.786;2023-03-31T03:59:32;12.40;99.90
21039;DHT22;10678;51.002;4.786;2023-03-31T04:01:58;12.40;99.90
21039;DHT22;10678;51.002;4.786;2023-03-31T04:04:23;12.40;99.90
21039;DHT22;10678;51.002;4.786;2023-03-31T04:06:49;12.60;99.90
21039;DHT22;10678;51.002;4.786;2023-03-31T04:09:15;12.60;99.90
21039;DHT22;10678;51.002;4.786;2023-03-31T04:11:41;12.50;99.90
21039;DHT22;10678;51.002;4.786;2023-03-31T04:14:06;12.30;99.90
21039;DHT22;10678;51.002;4.786;2023-03-31T04:16:32;12.20;99.90
21039;DHT22;10678;51.002;4.786;2023-03-31T04:18:59;12.10;99.90
21039;DHT22;10678;51.002;4.786;2023-03-31T04:21:28;12.10;99.90
21039;DHT22;10678;51.002;4.786;2023-03-31T04:23:55;12.20;99.90
21039;DHT22;10678;51.002;4.786;2023-03-31T04:26:27;12.10;99.90
21039;DHT22;10678;51.002;4.786;2023-03-31T04:29:06;12.20;99.90
21039;DHT22;10678;51.002;4.786;2023-03-31T04:31:32;12.30;99.90
21039;DHT22;10678;51.002;4.786;2023-03-31T04:33:58;12.30;99.90
21039;DHT22;10678;51.002;4.786;2023-03-31T04:36:31;12.20;99.90
21039;DHT22;10678;51.002;4.786;2023-03-31T04:38:57;12.10;99.90
21039;DHT22;10678;51.002;4.786;2023-03-31T04:41:24;12.00;99.90
21039;DHT22;10678;51.002;4.786;2023-03-31T04:43:52;12.00;99.90
21039;DHT22;10678;51.002;4.786;2023-03-31T04:46:18;12.20;99.90
21039;DHT22;10678;51.002;4.786;2023-03-31T04:48:44;12.40;99.90
21039;DHT22;10678;51.002;4.786;2023-03-31T04:51:09;12.40;99.90
21039;DHT22;10678;51.002;4.786;2023-03-31T04:53:35;12.40;99.90
21039;DHT22;10678;51.002;4.786;2023-03-31T04:56:01;12.20;99.90
21039;DHT22;10678;51.002;4.786;2023-03-31T04:58:27;12.30;99.90
21039;DHT22;10678;51.002;4.786;2023-03-31T05:00:52;12.30;99.90
21039;DHT22;10678;51.002;4.786;2023-03-31T05:03:18;12.40;99.90
21039;DHT22;10678;51.002;4.786;2023-03-31T05:05:44;12.40;99.90
21039;DHT22;10678;51.002;4.786;2023-03-31T05:08:09;12.40;99.90
21039;DHT22;10678;51.002;4.786;2023-03-31T05:10:35;12.50;99.90
21039;DHT22;10678;51.002;4.786;2023-03-31T05:13:01;12.40;99.90
21039;DHT22;10678;51.002;4.786;2023-03-31T05:15:27;12.40;99.90
21039;DHT22;10678;51.002;4.786;2023-03-31T05:17:53;12.20;99.90
21039;DHT22;10678;51.002;4.786;2023-03-31T05:20:19;12.20;99.90
21039;DHT22;10678;51.002;4.786;2023-03-31T05:22:45;12.20;99.90
21039;DHT22;10678;51.002;4.786;2023-03-31T05:25:11;12.20;99.90
21039;DHT22;10678;51.002;4.786;2023-03-31T05:27:47;12.00;99.90
21039;DHT22;10678;51.002;4.786;2023-03-31T05:30:13;12.10;99.90
21039;DHT22;10678;51.002;4.786;2023-03-31T05:32:39;12.10;99.90
21039;DHT22;10678;51.002;4.786;2023-03-31T05:35:05;12.20;99.90
21039;DHT22;10678;51.002;4.786;2023-03-31T05:37:30;12.20;99.90
21039;DHT22;10678;51.002;4.786;2023-03-31T05:39:56;12.20;99.90
21039;DHT22;10678;51.002;4.786;2023-03-31T05:42:24;12.00;99.90
21039;DHT22;10678;51.002;4.786;2023-03-31T05:44:50;12.10;99.90
21039;DHT22;10678;51.002;4.786;2023-03-31T05:47:16;12.10;99.90
21039;DHT22;10678;51.002;4.786;2023-03-31T05:49:42;12.20;99.90
21039;DHT22;10678;51.002;4.786;2023-03-31T05:52:09;12.30;99.90
21039;DHT22;10678;51.002;4.786;2023-03-31T05:54:35;12.20;99.90
21039;DHT22;10678;51.002;4.786;2023-03-31T05:57:01;12.20;99.90
21039;DHT22;10678;51.002;4.786;2023-03-31T05:59:26;12.20;99.90
21039;DHT22;10678;51.002;4.786;2023-03-31T06:01:52;12.30;99.90
21039;DHT22;10678;51.002;4.786;2023-03-31T06:04:18;12.30;99.90
21039;DHT22;10678;51.002;4.786;2023-03-31T06:06:43;12.10;99.90
21039;DHT22;10678;51.002;4.786;2023-03-31T06:09:10;12.20;99.90
21039;DHT22;10678;51.002;4.786;2023-03-31T06:11:37;12.10;99.90
21039;DHT22;10678;51.002;4.786;2023-03-31T06:14:03;12.10;99.90
21039;DHT22;10678;51.002;4.786;2023-03-31T06:16:29;12.20;99.90
21039;DHT22;10678;51.002;4.786;2023-03-31T06:18:54;12.20;99.90
21039;DHT22;10678;51.002;4.786;2023-03-31T06:21:20;12.20;99.90
21039;DHT22;10678;51.002;4.786;2023-03-31T06:23:46;12.20;99.90
21039;DHT22;10678;51.002;4.786;2023-03-31T06:26:16;12.20;99.90
21039;DHT22;10678;51.002;4.786;2023-03-31T06:28:43;12.30;99.90
21039;DHT22;10678;51.002;4.786;2023-03-31T06:31:11;12.40;99.90
21039;DHT22;10678;51.002;4.786;2023-03-31T06:33:39;12.40;99.90
21039;DHT22;10678;51.002;4.786;2023-03-31T06:36:05;12.50;99.90
21039;DHT22;10678;51.002;4.786;2023-03-31T06:38:35;12.50;99.90
21039;DHT22;10678;51.002;4.786;2023-03-31T06:41:03;12.60;99.90
21039;DHT22;10678;51.002;4.786;2023-03-31T06:43:28;12.50;99.90
21039;DHT22;10678;51.002;4.786;2023-03-31T06:45:55;12.50;99.90
21039;DHT22;10678;51.002;4.786;2023-03-31T06:48:22;12.50;99.90
21039;DHT22;10678;51.002;4.786;2023-03-31T06:50:48;12.40;99.90
21039;DHT22;10678;51.002;4.786;2023-03-31T06:53:13;12.70;99.90
21039;DHT22;10678;51.002;4.786;2023-03-31T06:55:39;12.90;99.90
21039;DHT22;10678;51.002;4.786;2023-03-31T06:58:05;12.90;99.90
21039;DHT22;10678;51.002;4.786;2023-03-31T07:00:32;13.00;99.90
21039;DHT22;10678;51.002;4.786;2023-03-31T07:02:58;13.10;99.90
21039;DHT22;10678;51.002;4.786;2023-03-31T07:05:23;13.10;99.90
21039;DHT22;10678;51.002;4.786;2023-03-31T07:07:55;13.20;99.90
21039;DHT22;10678;51.002;4.786;2023-03-31T07:10:21;13.40;99.90
21039;DHT22;10678;51.002;4.786;2023-03-31T07:12:47;13.50;99.90
21039;DHT22;10678;51.002;4.786;2023-03-31T07:15:13;13.70;99.90
21039;DHT22;10678;51.002;4.786;2023-03-31T07:17:39;13.80;99.90
21039;DHT22;10678;51.002;4.786;2023-03-31T07:20:12;14.00;99.90
21039;DHT22;10678;51.002;4.786;2023-03-31T07:22:41;14.10;99.90
21039;DHT22;10678;51.002;4.786;2023-03-31T07:25:09;14.20;99.90
21039;DHT22;10678;51.002;4.786;2023-03-31T07:27:35;14.40;99.90
21039;DHT22;10678;51.002;4.786;2023-03-31T07:30:02;14.60;99.90
21039;DHT22;10678;51.002;4.786;2023-03-31T07:32:28;14.70;99.90
21039;DHT22;10678;51.002;4.786;2023-03-31T07:34:54;14.80;99.90
21039;DHT22;10678;51.002;4.786;2023-03-31T07:37:19;14.80;99.90
21039;DHT22;10678;51.002;4.786;2023-03-31T07:39:45;14.60;99.90
21039;DHT22;10678;51.002;4.786;2023-03-31T07:42:10;14.50;99.90
21039;DHT22;10678;51.002;4.786;2023-03-31T07:44:36;14.60;99.90
21039;DHT22;10678;51.002;4.786;2023-03-31T07:47:02;14.40;99.90
21039;DHT22;10678;51.002;4.786;2023-03-31T07:49:31;14.30;99.90
21039;DHT22;10678;51.002;4.786;2023-03-31T07:51:57;14.40;99.90
21039;DHT22;10678;51.002;4.786;2023-03-31T07:54:23;14.30;99.90
21039;DHT22;10678;51.002;4.786;2023-03-31T07:56:49;14.40;99.90
21039;DHT22;10678;51.002;4.786;2023-03-31T07:59:15;14.60;99.90
21039;DHT22;10678;51.002;4.786;2023-03-31T08:01:40;14.50;99.90
21039;DHT22;10678;51.002;4.786;2023-03-31T08:04:06;14.50;99.90
21039;DHT22;10678;51.002;4.786;2023-03-31T08:06:32;14.40;99.90
21039;DHT22;10678;51.002;4.786;2023-03-31T08:08:58;14.30;99.90
21039;DHT22;10678;51.002;4.786;2023-03-31T08:11:24;14.10;99.90
21039;DHT22;10678;51.002;4.786;2023-03-31T08:13:50;14.10;99.90
21039;DHT22;10678;51.002;4.786;2023-03-31T08:16:16;14.10;99.90
21039;DHT22;10678;51.002;4.786;2023-03-31T08:18:42;14.00;99.90
21039;DHT22;10678;51.002;4.786;2023-03-31T08:21:07;14.10;99.90
21039;DHT22;10678;51.002;4.786;2023-03-31T08:23:36;14.00;99.90
21039;DHT22;10678;51.002;4.786;2023-03-31T08:26:14;13.80;99.90
21039;DHT22;10678;51.002;4.786;2023-03-31T08:28:39;13.60;99.90
21039;DHT22;10678;51.002;4.786;2023-03-31T08:31:08;13.70;99.90
21039;DHT22;10678;51.002;4.786;2023-03-31T08:33:35;13.70;99.90
21039;DHT22;10678;51.002;4.786;2023-03-31T08:36:03;14.00;99.90
21039;DHT22;10678;51.002;4.786;2023-03-31T08:38:30;14.20;99.90
21039;DHT22;10678;51.002;4.786;2023-03-31T08:41:01;14.30;99.90
21039;DHT22;10678;51.002;4.786;2023-03-31T08:43:31;14.40;99.90
21039;DHT22;10678;51.002;4.786;2023-03-31T08:45:58;14.60;99.90
21039;DHT22;10678;51.002;4.786;2023-03-31T08:48:38;14.70;99.90
21039;DHT22;10678;51.002;4.786;2023-03-31T08:51:39;15.00;99.90
21039;DHT22;10678;51.002;4.786;2023-03-31T08:54:24;15.10;99.90
21039;DHT22;10678;51.002;4.786;2023-03-31T08:56:53;15.10;99.90
21039;DHT22;10678;51.002;4.786;2023-03-31T08:59:30;15.20;99.90
21039;DHT22;10678;51.002;4.786;2023-03-31T09:10:42;15.00;99.90
21039;DHT22;10678;51.002;4.786;2023-03-31T09:13:20;14.90;99.90
21039;DHT22;10678;51.002;4.786;2023-03-31T09:16:13;15.00;99.90
21039;DHT22;10678;51.002;4.786;2023-03-31T09:18:40;15.20;99.90
21039;DHT22;10678;51.002;4.786;2023-03-31T09:21:12;15.70;99.90
21039;DHT22;10678;51.002;4.786;2023-03-31T09:24:18;16.40;99.90
21039;DHT22;10678;51.002;4.786;2023-03-31T09:27:00;16.80;99.90
21039;DHT22;10678;51.002;4.786;2023-03-31T09:29:35;16.90;99.90
21039;DHT22;10678;51.002;4.786;2023-03-31T09:32:25;16.80;99.90
21039;DHT22;10678;51.002;4.786;2023-03-31T09:34:55;16.50;99.90
21039;DHT22;10678;51.002;4.786;2023-03-31T09:37:23;16.40;99.90
21039;DHT22;10678;51.002;4.786;2023-03-31T09:39:50;16.20;99.90
21039;DHT22;10678;51.002;4.786;2023-03-31T09:42:16;16.20;99.90
21039;DHT22;10678;51.002;4.786;2023-03-31T09:44:45;16.00;99.90
21039;DHT22;10678;51.002;4.786;2023-03-31T09:47:40;15.80;99.90
21039;DHT22;10678;51.002;4.786;2023-03-31T09:50:08;16.00;99.90
21039;DHT22;10678;51.002;4.786;2023-03-31T09:52:55;16.70;99.90
21039;DHT22;10678;51.002;4.786;2023-03-31T09:55:40;17.90;99.90
21039;DHT22;10678;51.002;4.786;2023-03-31T09:58:12;18.80;99.90
21039;DHT22;10678;51.002;4.786;2023-03-31T10:00:54;19.00;99.90
21039;DHT22;10678;51.002;4.786;2023-03-31T10:03:21;18.90;99.90
21039;DHT22;10678;51.002;4.786;2023-03-31T10:05:50;18.50;99.90
21039;DHT22;10678;51.002;4.786;2023-03-31T10:10:49;17.80;99.90
21039;DHT22;10678;51.002;4.786;2023-03-31T10:13:18;17.50;99.90
21039;DHT22;10678;51.002;4.786;2023-03-31T10:15:44;17.40;99.90
21039;DHT22;10678;51.002;4.786;2023-03-31T10:18:17;17.40;99.90
21039;DHT22;10678;51.002;4.786;2023-03-31T10:20:49;17.10;99.90
21039;DHT22;10678;51.002;4.786;2023-03-31T10:25:43;16.40;99.90
21039;DHT22;10678;51.002;4.786;2023-03-31T10:28:11;16.20;99.90
21039;DHT22;10678;51.002;4.786;2023-03-31T10:30:50;16.20;99.90
21039;DHT22;10678;51.002;4.786;2023-03-31T10:33:22;15.90;99.90
21039;DHT22;10678;51.002;4.786;2023-03-31T10:35:54;16.00;99.90
21039;DHT22;10678;51.002;4.786;2023-03-31T10:40:54;16.50;99.90
21039;DHT22;10678;51.002;4.786;2023-03-31T10:43:28;16.50;99.90
21039;DHT22;10678;51.002;4.786;2023-03-31T10:45:58;16.80;99.90
21039;DHT22;10678;51.002;4.786;2023-03-31T10:51:15;16.90;99.90
21039;DHT22;10678;51.002;4.786;2023-03-31T10:53:44;16.50;99.90
21039;DHT22;10678;51.002;4.786;2023-03-31T11:18:31;17.30;99.90
21039;DHT22;10678;51.002;4.786;2023-03-31T11:21:12;17.20;99.90
21039;DHT22;10678;51.002;4.786;2023-03-31T11:40:43;16.10;99.90
21039;DHT22;10678;51.002;4.786;2023-03-31T11:43:21;16.50;99.90
21039;DHT22;10678;51.002;4.786;2023-03-31T11:46:02;16.90;99.90
21039;DHT22;10678;51.002;4.786;2023-03-31T11:48:45;17.60;99.90
21039;DHT22;10678;51.002;4.786;2023-03-31T11:51:52;17.80;99.90
21039;DHT22;10678;51.002;4.786;2023-03-31T11:54:29;17.90;99.90
21039;DHT22;10678;51.002;4.786;2023-03-31T11:57:01;18.30;99.90
21039;DHT22;10678;51.002;4.786;2023-03-31T11:59:28;18.80;99.90
21039;DHT22;10678;51.002;4.786;2023-03-31T12:02:17;19.30;99.90
21039;DHT22;10678;51.002;4.786;2023-03-31T12:04:54;19.10;99.90
21039;DHT22;10678;51.002;4.786;2023-03-31T12:07:31;18.30;99.90
21039;DHT22;10678;51.002;4.786;2023-03-31T12:10:18;17.90;99.90
21039;DHT22;10678;51.002;4.786;2023-03-31T12:15:36;17.60;99.90
21039;DHT22;10678;51.002;4.786;2023-03-31T12:18:17;17.20;99.90
21039;DHT22;10678;51.002;4.786;2023-03-31T12:21:03;16.90;99.90
21039;DHT22;10678;51.002;4.786;2023-03-31T12:23:42;16.20;99.90
21039;DHT22;10678;51.002;4.786;2023-03-31T12:28:58;15.60;99.90
21039;DHT22;10678;51.002;4.786;2023-03-31T12:31:26;15.40;99.90
21039;DHT22;10678;51.002;4.786;2023-03-31T12:34:00;15.10;99.90
21039;DHT22;10678;51.002;4.786;2023-03-31T12:36:35;15.00;99.90
21039;DHT22;10678;51.002;4.786;2023-03-31T12:39:21;14.70;99.90
21039;DHT22;10678;51.002;4.786;2023-03-31T12:50:13;13.90;99.90
21039;DHT22;10678;51.002;4.786;2023-03-31T12:55:54;14.10;99.90
21039;DHT22;10678;51.002;4.786;2023-03-31T13:11:44;15.00;99.90
21039;DHT22;10678;51.002;4.786;2023-03-31T13:14:35;15.10;99.90
21039;DHT22;10678;51.002;4.786;2023-03-31T13:19:52;15.30;99.90
21039;DHT22;10678;51.002;4.786;2023-03-31T13:22:36;15.20;99.90
21039;DHT22;10678;51.002;4.786;2023-03-31T13:27:57;15.30;99.90
21039;DHT22;10678;51.002;4.786;2023-03-31T13:33:13;15.60;99.90
21039;DHT22;10678;51.002;4.786;2023-03-31T13:35:44;15.40;99.90
21039;DHT22;10678;51.002;4.786;2023-03-31T13:38:41;15.40;99.90
21039;DHT22;10678;51.002;4.786;2023-03-31T13:46:47;14.80;99.90
21039;DHT22;10678;51.002;4.786;2023-03-31T13:52:12;14.40;99.90
21039;DHT22;10678;51.002;4.786;2023-03-31T14:08:57;14.80;99.90
21039;DHT22;10678;51.002;4.786;2023-03-31T14:11:27;14.90;99.90
21039;DHT22;10678;51.002;4.786;2023-03-31T14:14:06;14.60;99.90
21039;DHT22;10678;51.002;4.786;2023-03-31T14:16:38;14.50;99.90
21039;DHT22;10678;51.002;4.786;2023-03-31T14:22:04;14.10;99.90
21039;DHT22;10678;51.002;4.786;2023-03-31T14:24:37;13.80;99.90
21039;DHT22;10678;51.002;4.786;2023-03-31T14:29:58;13.60;99.90
21039;DHT22;10678;51.002;4.786;2023-03-31T14:37:51;13.60;99.90
21039;DHT22;10678;51.002;4.786;2023-03-31T14:40:18;13.70;99.90
21039;DHT22;10678;51.002;4.786;2023-03-31T14:42:45;13.90;99.90
21039;DHT22;10678;51.002;4.786;2023-03-31T14:45:19;14.10;99.90
21039;DHT22;10678;51.002;4.786;2023-03-31T14:47:59;14.10;99.90
21039;DHT22;10678;51.002;4.786;2023-03-31T14:50:30;14.10;99.90
21039;DHT22;10678;51.002;4.786;2023-03-31T14:52:58;14.10;99.90
21039;DHT22;10678;51.002;4.786;2023-03-31T14:55:28;14.10;99.90
21039;DHT22;10678;51.002;4.786;2023-03-31T14:57:56;13.90;99.90
21039;DHT22;10678;51.002;4.786;2023-03-31T15:00:35;14.00;99.90
21039;DHT22;10678;51.002;4.786;2023-03-31T15:03:06;14.00;99.90
21039;DHT22;10678;51.002;4.786;2023-03-31T15:05:34;14.00;99.90
21039;DHT22;10678;51.002;4.786;2023-03-31T15:08:15;13.80;99.90
21039;DHT22;10678;51.002;4.786;2023-03-31T15:10:44;14.00;99.90
21039;DHT22;10678;51.002;4.786;2023-03-31T15:13:29;14.00;99.90
21039;DHT22;10678;51.002;4.786;2023-03-31T15:15:56;13.90;99.90
21039;DHT22;10678;51.002;4.786;2023-03-31T15:18:25;14.00;99.90
21039;DHT22;10678;51.002;4.786;2023-03-31T15:20:51;14.10;99.90
21039;DHT22;10678;51.002;4.786;2023-03-31T15:23:22;14.00;99.90
21039;DHT22;10678;51.002;4.786;2023-03-31T15:25:57;13.80;99.90
21039;DHT22;10678;51.002;4.786;2023-03-31T15:28:30;13.70;99.90
21039;DHT22;10678;51.002;4.786;2023-03-31T15:30:58;13.70;99.90
21039;DHT22;10678;51.002;4.786;2023-03-31T15:33:31;13.70;99.90
21039;DHT22;10678;51.002;4.786;2023-03-31T15:35:58;13.80;99.90
21039;DHT22;10678;51.002;4.786;2023-03-31T15:38:26;13.60;99.90
21039;DHT22;10678;51.002;4.786;2023-03-31T15:40:55;13.60;99.90
21039;DHT22;10678;51.002;4.786;2023-03-31T15:43:29;13.50;99.90
21039;DHT22;10678;51.002;4.786;2023-03-31T15:45:56;13.50;99.90
21039;DHT22;10678;51.002;4.786;2023-03-31T15:48:35;13.70;99.90
21039;DHT22;10678;51.002;4.786;2023-03-31T15:51:06;13.80;99.90
21039;DHT22;10678;51.002;4.786;2023-03-31T15:53:47;13.70;99.90
21039;DHT22;10678;51.002;4.786;2023-03-31T15:59:03;13.80;99.90
21039;DHT22;10678;51.002;4.786;2023-03-31T16:01:36;13.70;99.90
21039;DHT22;10678;51.002;4.786;2023-03-31T16:04:07;13.60;99.90
21039;DHT22;10678;51.002;4.786;2023-03-31T16:06:57;13.50;99.90
21039;DHT22;10678;51.002;4.786;2023-03-31T16:09:45;13.50;99.90
21039;DHT22;10678;51.002;4.786;2023-03-31T16:12:22;13.50;99.90
21039;DHT22;10678;51.002;4.786;2023-03-31T16:14:57;13.60;99.90
21039;DHT22;10678;51.002;4.786;2023-03-31T16:17:30;13.40;99.90
21039;DHT22;10678;51.002;4.786;2023-03-31T16:20:25;13.20;99.90
21039;DHT22;10678;51.002;4.786;2023-03-31T16:22:55;13.20;99.90
21039;DHT22;10678;51.002;4.786;2023-03-31T16:25:24;13.20;99.90
21039;DHT22;10678;51.002;4.786;2023-03-31T16:27:53;13.20;99.90
21039;DHT22;10678;51.002;4.786;2023-03-31T16:30:31;13.10;99.90
21039;DHT22;10678;51.002;4.786;2023-03-31T16:35:35;13.20;99.90
21039;DHT22;10678;51.002;4.786;2023-03-31T16:38:02;13.00;99.90
21039;DHT22;10678;51.002;4.786;2023-03-31T16:40:29;12.70;99.90
21039;DHT22;10678;51.002;4.786;2023-03-31T16:43:17;12.80;99.90
21039;DHT22;10678;51.002;4.786;2023-03-31T16:45:48;12.90;99.90
21039;DHT22;10678;51.002;4.786;2023-03-31T16:48:15;12.80;99.90
21039;DHT22;10678;51.002;4.786;2023-03-31T16:50:42;12.50;99.90
21039;DHT22;10678;51.002;4.786;2023-03-31T16:53:08;12.60;99.90
21039;DHT22;10678;51.002;4.786;2023-03-31T16:55:34;12.70;99.90
21039;DHT22;10678;51.002;4.786;2023-03-31T16:58:00;12.60;99.90
21039;DHT22;10678;51.002;4.786;2023-03-31T17:00:32;12.70;99.90
21039;DHT22;10678;51.002;4.786;2023-03-31T17:03:00;12.60;99.90
21039;DHT22;10678;51.002;4.786;2023-03-31T17:05:27;12.70;99.90
21039;DHT22;10678;51.002;4.786;2023-03-31T17:07:53;12.70;99.90
21039;DHT22;10678;51.002;4.786;2023-03-31T17:10:19;12.50;99.90
21039;DHT22;10678;51.002;4.786;2023-03-31T17:12:45;12.40;99.90
21039;DHT22;10678;51.002;4.786;2023-03-31T17:15:11;12.50;99.90
21039;DHT22;10678;51.002;4.786;2023-03-31T17:17:37;12.50;99.90
21039;DHT22;10678;51.002;4.786;2023-03-31T17:20:07;12.60;99.90
21039;DHT22;10678;51.002;4.786;2023-03-31T17:22:33;12.60;99.90
21039;DHT22;10678;51.002;4.786;2023-03-31T17:24:59;12.50;99.90
21039;DHT22;10678;51.002;4.786;2023-03-31T17:27:26;12.40;99.90
21039;DHT22;10678;51.002;4.786;2023-03-31T17:29:52;12.30;99.90
21039;DHT22;10678;51.002;4.786;2023-03-31T17:32:19;12.30;99.90
21039;DHT22;10678;51.002;4.786;2023-03-31T17:34:45;12.20;99.90
21039;DHT22;10678;51.002;4.786;2023-03-31T17:37:15;12.20;99.90
21039;DHT22;10678;51.002;4.786;2023-03-31T17:39:41;12.10;99.90
21039;DHT22;10678;51.002;4.786;2023-03-31T17:42:08;12.10;99.90
21039;DHT22;10678;51.002;4.786;2023-03-31T17:44:33;12.20;99.90
21039;DHT22;10678;51.002;4.786;2023-03-31T17:47:00;12.20;99.90
21039;DHT22;10678;51.002;4.786;2023-03-31T17:49:25;12.20;99.90
21039;DHT22;10678;51.002;4.786;2023-03-31T17:51:51;12.30;99.90
21039;DHT22;10678;51.002;4.786;2023-03-31T17:54:17;12.30;99.90
21039;DHT22;10678;51.002;4.786;2023-03-31T17:56:43;12.10;99.90
21039;DHT22;10678;51.002;4.786;2023-03-31T17:59:10;12.10;99.90
21039;DHT22;10678;51.002;4.786;2023-03-31T18:01:35;12.00;99.90
21039;DHT22;10678;51.002;4.786;2023-03-31T18:04:02;12.00;99.90
21039;DHT22;10678;51.002;4.786;2023-03-31T18:06:28;11.90;99.90
21039;DHT22;10678;51.002;4.786;2023-03-31T18:08:55;11.90;99.90
21039;DHT22;10678;51.002;4.786;2023-03-31T18:11:21;11.80;99.90
21039;DHT22;10678;51.002;4.786;2023-03-31T18:13:47;11.70;99.90
21039;DHT22;10678;51.002;4.786;2023-03-31T18:16:13;11.70;99.90
21039;DHT22;10678;51.002;4.786;2023-03-31T18:18:39;11.80;99.90
21039;DHT22;10678;51.002;4.786;2023-03-31T18:21:07;11.80;99.90
21039;DHT22;10678;51.002;4.786;2023-03-31T18:23:33;11.80;99.90
21039;DHT22;10678;51.002;4.786;2023-03-31T18:26:00;11.80;99.90
21039;DHT22;10678;51.002;4.786;2023-03-31T18:28:26;11.80;99.90
21039;DHT22;10678;51.002;4.786;2023-03-31T18:30:52;11.70;99.90
21039;DHT22;10678;51.002;4.786;2023-03-31T18:33:18;11.70;99.90
21039;DHT22;10678;51.002;4.786;2023-03-31T18:35:44;11.60;99.90
21039;DHT22;10678;51.002;4.786;2023-03-31T18:38:11;11.60;99.90
21039;DHT22;10678;51.002;4.786;2023-03-31T18:40:37;11.70;99.90
21039;DHT22;10678;51.002;4.786;2023-03-31T18:43:04;11.90;99.90
21039;DHT22;10678;51.002;4.786;2023-03-31T18:45:30;12.00;99.90
21039;DHT22;10678;51.002;4.786;2023-03-31T18:47:56;12.00;99.90
21039;DHT22;10678;51.002;4.786;2023-03-31T18:50:22;11.90;99.90
21039;DHT22;10678;51.002;4.786;2023-03-31T18:52:49;11.90;99.90